Time;durP1;ratioP1;P1;durP2;ratioP2;P2;SDS_P1;SDS_P2;PMS_P1;PMS_P2;Temp;Humidity;BMP_temperature;BMP_pressure;BME280_temperature;BME280_humidity;BME280_pressure;Samples;Min_cycle;Max_cycle;Signal;HPM_P1;HPM_P2
2023/08/06 00:00:01;;;;;;;13.50;12.47;;;15.00;99.90;;;;;;4981687;28;20851;-82
2023/08/06 00:02:28;;;;;;;13.73;12.53;;;15.00;99.90;;;;;;4980543;28;20453;-83
2023/08/06 00:04:55;;;;;;;13.57;12.43;;;15.00;99.90;;;;;;4985325;28;20448;-83
2023/08/06 00:07:22;;;;;;;12.97;11.80;;;14.90;99.90;;;;;;4982573;28;20460;-85
2023/08/06 00:09:52;;;;;;;11.37;10.40;;;14.90;99.90;;;;;;4979470;28;20452;-82
2023/08/06 00:12:19;;;;;;;11.70;10.80;;;15.00;99.90;;;;;;4981172;28;20423;-79
2023/08/06 00:14:50;;;;;;;11.50;10.50;;;15.00;99.90;;;;;;4980121;28;20835;-84
2023/08/06 00:17:17;;;;;;;11.80;10.80;;;15.00;99.90;;;;;;4979803;28;20436;-85
2023/08/06 00:19:44;;;;;;;10.17;9.37;;;15.00;99.90;;;;;;4978693;28;20516;-79
2023/08/06 00:22:12;;;;;;;10.27;9.47;;;14.90;99.90;;;;;;4982424;28;20475;-86
2023/08/06 00:24:38;;;;;;;9.10;8.40;;;14.90;99.90;;;;;;4987190;28;20471;-78
2023/08/06 00:27:06;;;;;;;9.13;8.43;;;15.00;99.90;;;;;;4982233;28;20783;-79
2023/08/06 00:29:32;;;;;;;9.47;8.67;;;15.10;99.90;;;;;;4980005;28;20855;-77
2023/08/06 00:31:59;;;;;;;9.70;9.00;;;15.00;99.90;;;;;;4978603;28;20448;-82
2023/08/06 00:34:27;;;;;;;9.30;8.53;;;14.90;99.90;;;;;;4982738;28;20503;-82
2023/08/06 00:36:56;;;;;;;10.03;7.97;;;15.00;99.90;;;;;;4979230;28;20456;-81
2023/08/06 00:39:23;;;;;;;9.27;8.53;;;15.00;99.90;;;;;;4986605;28;21044;-84
2023/08/06 00:41:50;;;;;;;8.33;7.70;;;14.90;99.90;;;;;;4985532;28;20440;-83
2023/08/06 00:44:18;;;;;;;7.50;6.90;;;14.80;99.90;;;;;;4987630;28;20436;-78
2023/08/06 00:46:45;;;;;;;7.53;6.83;;;14.80;99.90;;;;;;4986111;28;20472;-80
2023/08/06 00:49:12;;;;;;;7.93;7.33;;;14.90;99.90;;;;;;4986299;28;20440;-79
2023/08/06 00:51:39;;;;;;;9.80;9.00;;;14.90;99.90;;;;;;4984608;28;20495;-79
2023/08/06 00:54:06;;;;;;;8.20;7.50;;;14.90;99.90;;;;;;4982424;28;20776;-79
2023/08/06 00:56:35;;;;;;;9.50;8.70;;;14.90;99.90;;;;;;4979215;28;20472;-80
2023/08/06 00:59:05;;;;;;;7.80;7.20;;;14.80;99.90;;;;;;4980056;28;20508;-78
2023/08/06 01:01:32;;;;;;;8.03;7.43;;;14.70;99.90;;;;;;4980706;28;20472;-78
2023/08/06 01:04:01;;;;;;;8.13;7.43;;;14.80;99.90;;;;;;4981707;28;20449;-80
2023/08/06 01:06:52;;;;;;;7.83;7.23;;;14.80;99.90;;;;;;4980302;28;20468;-82
2023/08/06 01:09:36;;;;;;;8.67;7.83;;;14.80;99.90;;;;;;4977500;28;20468;-86
2023/08/06 01:12:45;;;;;;;6.53;6.03;;;14.80;99.90;;;;;;4992601;28;20428;-82
2023/08/06 01:15:20;;;;;;;7.80;7.20;;;14.80;99.90;;;;;;4978161;28;20487;-81
2023/08/06 01:17:48;;;;;;;7.90;7.20;;;14.80;99.90;;;;;;4980264;28;20503;-80
2023/08/06 01:20:15;;;;;;;7.10;6.50;;;14.80;99.90;;;;;;4979410;28;20488;-79
2023/08/06 01:22:45;;;;;;;6.17;5.67;;;14.70;99.90;;;;;;4981465;28;20992;-82
2023/08/06 01:25:16;;;;;;;6.37;5.90;;;14.70;99.90;;;;;;4981694;28;20472;-79
2023/08/06 01:27:50;;;;;;;7.00;6.40;;;14.80;99.90;;;;;;4978592;28;20499;-81
2023/08/06 01:30:27;;;;;;;7.30;6.80;;;14.70;99.90;;;;;;4979278;28;20462;-78
2023/08/06 01:33:03;;;;;;;7.03;6.43;;;14.70;99.90;;;;;;4982973;28;20834;-82
2023/08/06 01:35:32;;;;;;;5.70;5.30;;;14.70;99.90;;;;;;4979389;28;20467;-80
2023/08/06 01:38:03;;;;;;;5.37;4.83;;;14.80;99.90;;;;;;4976048;28;20472;-83
2023/08/06 01:40:31;;;;;;;5.40;4.97;;;14.80;99.90;;;;;;4980745;28;20476;-79
2023/08/06 01:42:58;;;;;;;6.87;6.37;;;14.80;99.90;;;;;;4976552;28;20542;-83
2023/08/06 01:45:25;;;;;;;6.27;5.77;;;14.70;99.90;;;;;;4984048;28;20507;-82
2023/08/06 01:47:53;;;;;;;5.97;5.57;;;14.80;99.90;;;;;;4979812;28;20516;-81
2023/08/06 01:50:20;;;;;;;6.10;5.60;;;14.80;99.90;;;;;;4979795;28;20491;-83
2023/08/06 01:52:47;;;;;;;5.40;5.00;;;14.80;99.90;;;;;;4980654;28;20479;-82
2023/08/06 01:55:15;;;;;;;6.03;5.43;;;14.90;99.90;;;;;;4984887;28;20636;-79
2023/08/06 01:57:42;;;;;;;15.33;5.73;;;14.80;99.90;;;;;;4993529;28;20508;-79
2023/08/06 02:00:09;;;;;;;8.27;5.30;;;14.80;99.90;;;;;;4979873;28;20551;-82
2023/08/06 02:02:36;;;;;;;6.37;5.77;;;14.80;99.90;;;;;;4980465;28;20507;-82
2023/08/06 02:05:03;;;;;;;9.20;5.73;;;14.80;99.90;;;;;;4981394;28;20839;-83
2023/08/06 02:07:30;;;;;;;6.33;5.00;;;14.80;99.90;;;;;;4979590;28;20437;-84
2023/08/06 02:09:57;;;;;;;5.03;4.63;;;14.90;99.90;;;;;;4982079;28;20436;-79
2023/08/06 02:12:24;;;;;;;6.13;5.53;;;14.90;99.90;;;;;;4985804;28;20568;-81
2023/08/06 02:14:51;;;;;;;5.67;5.17;;;14.80;99.90;;;;;;4984163;28;20543;-80
2023/08/06 02:17:18;;;;;;;5.33;4.83;;;14.80;99.90;;;;;;4988178;28;20534;-80
2023/08/06 02:19:45;;;;;;;5.30;4.20;;;14.80;99.90;;;;;;4986104;28;20476;-81
2023/08/06 02:22:11;;;;;;;3.80;3.50;;;14.70;99.90;;;;;;4985929;28;20515;-77
2023/08/06 02:24:39;;;;;;;3.90;3.60;;;14.70;99.90;;;;;;4989684;28;20472;-81
2023/08/06 02:27:08;;;;;;;3.20;3.00;;;14.60;99.90;;;;;;4992390;28;20452;-80
2023/08/06 02:29:39;;;;;;;3.50;3.20;;;14.70;99.90;;;;;;4995626;28;20456;-80
2023/08/06 02:32:07;;;;;;;3.33;3.13;;;14.60;99.90;;;;;;4992817;28;20428;-80
2023/08/06 02:34:34;;;;;;;2.90;2.70;;;14.70;99.90;;;;;;4994973;28;20464;-78
2023/08/06 02:37:01;;;;;;;4.20;2.53;;;14.60;99.90;;;;;;4984725;28;20500;-79
2023/08/06 02:39:28;;;;;;;4.38;3.58;;;14.60;99.90;;;;;;4984120;28;20602;-79
2023/08/06 02:41:55;;;;;;;3.00;2.80;;;14.60;99.90;;;;;;4983844;28;20277;-80
2023/08/06 02:44:26;;;;;;;2.70;2.50;;;14.60;99.90;;;;;;4986118;28;20476;-80
2023/08/06 02:46:55;;;;;;;2.90;2.53;;;14.60;99.90;;;;;;4983312;28;20675;-82
2023/08/06 02:49:22;;;;;;;2.27;2.17;;;14.60;99.90;;;;;;4988307;28;20464;-81
2023/08/06 02:51:49;;;;;;;2.80;2.60;;;14.50;99.90;;;;;;4987563;28;20525;-82
2023/08/06 02:54:19;;;;;;;2.40;1.83;;;14.60;99.90;;;;;;4982331;28;20452;-79
2023/08/06 02:56:46;;;;;;;2.23;2.03;;;14.60;99.90;;;;;;4979834;28;20448;-78
2023/08/06 02:59:13;;;;;;;5.50;1.90;;;14.60;99.90;;;;;;4983563;28;20445;-84
2023/08/06 03:01:40;;;;;;;1.77;1.67;;;14.60;99.90;;;;;;4984021;28;20484;-84
2023/08/06 03:04:09;;;;;;;2.73;2.20;;;14.60;99.90;;;;;;4976165;28;20211;-81
2023/08/06 03:06:38;;;;;;;2.30;2.20;;;14.60;99.90;;;;;;4983891;28;20488;-82
2023/08/06 03:09:05;;;;;;;1.80;1.70;;;14.70;99.90;;;;;;4982946;28;20415;-82
2023/08/06 03:11:32;;;;;;;2.50;2.30;;;14.60;99.90;;;;;;4990471;28;20461;-81
2023/08/06 03:14:05;;;;;;;2.37;2.27;;;14.60;99.90;;;;;;4985497;28;20535;-81
2023/08/06 03:16:35;;;;;;;1.67;1.57;;;14.60;99.90;;;;;;4981766;28;20480;-80
2023/08/06 03:19:02;;;;;;;2.75;1.75;;;14.60;99.90;;;;;;4981218;28;20539;-82
2023/08/06 03:21:30;;;;;;;2.10;1.90;;;14.40;99.90;;;;;;4981591;28;20230;-85
2023/08/06 03:23:57;;;;;;;1.97;1.80;;;14.40;99.90;;;;;;4981279;28;20519;-81
2023/08/06 03:26:24;;;;;;;1.60;1.50;;;14.40;99.90;;;;;;4981919;28;20479;-81
2023/08/06 03:28:51;;;;;;;1.63;1.53;;;14.30;99.90;;;;;;4984322;28;20464;-82
2023/08/06 03:31:19;;;;;;;2.10;2.00;;;14.40;99.90;;;;;;4980755;28;20444;-80
2023/08/06 03:33:45;;;;;;;2.30;1.30;;;14.40;99.90;;;;;;4981222;28;20453;-80
2023/08/06 03:36:15;;;;;;;1.50;1.40;;;14.50;99.90;;;;;;4980932;28;20209;-82
2023/08/06 03:38:45;;;;;;;2.00;1.90;;;14.40;99.90;;;;;;4982146;28;20448;-82
2023/08/06 03:41:21;;;;;;;1.65;1.55;;;14.30;99.90;;;;;;4982272;28;20230;-84
2023/08/06 03:43:48;;;;;;;1.63;1.53;;;14.30;99.90;;;;;;4981503;28;20218;-81
2023/08/06 03:46:15;;;;;;;1.80;1.70;;;14.30;99.90;;;;;;4980277;28;20445;-80
2023/08/06 03:48:42;;;;;;;1.80;1.37;;;14.40;99.90;;;;;;4981197;28;20673;-82
2023/08/06 03:51:09;;;;;;;1.50;1.40;;;14.40;99.90;;;;;;4980610;28;20456;-79
2023/08/06 03:53:38;;;;;;;1.97;1.63;;;14.40;99.90;;;;;;4980918;28;20440;-83
2023/08/06 03:56:08;;;;;;;1.20;1.10;;;14.40;99.90;;;;;;4982287;28;20456;-86
2023/08/06 03:58:41;;;;;;;0.93;0.93;;;14.20;99.90;;;;;;4982612;28;20432;-79
2023/08/06 04:01:09;;;;;;;1.47;1.37;;;14.40;99.90;;;;;;4981530;28;20540;-81
2023/08/06 04:03:41;;;;;;;1.43;1.33;;;14.40;99.90;;;;;;4982767;28;20451;-81
2023/08/06 04:06:09;;;;;;;1.40;1.30;;;14.40;99.90;;;;;;4981905;28;20452;-85
2023/08/06 04:08:40;;;;;;;1.43;1.33;;;14.40;99.90;;;;;;4981467;28;20203;-88
2023/08/06 04:11:13;;;;;;;1.40;1.30;;;14.20;99.90;;;;;;4980781;28;20944;-85
2023/08/06 04:13:43;;;;;;;1.50;1.40;;;14.30;99.90;;;;;;4980833;28;20210;-84
2023/08/06 04:16:18;;;;;;;1.60;1.50;;;14.30;99.90;;;;;;4981701;28;20802;-83
2023/08/06 04:18:47;;;;;;;1.70;1.60;;;14.40;99.90;;;;;;4983076;28;20803;-81
2023/08/06 04:21:18;;;;;;;3.67;1.35;;;14.30;99.90;;;;;;4976774;28;20551;-82
2023/08/06 04:23:45;;;;;;;1.38;1.27;;;14.20;99.90;;;;;;4979870;28;20254;-79
2023/08/06 04:26:15;;;;;;;1.93;1.50;;;14.30;99.90;;;;;;4979014;28;20234;-80
2023/08/06 04:28:42;;;;;;;2.10;1.90;;;14.30;99.90;;;;;;4979550;28;20509;-80
2023/08/06 04:31:09;;;;;;;1.30;1.25;;;14.40;99.90;;;;;;4979134;28;20224;-80
2023/08/06 04:33:36;;;;;;;1.53;1.10;;;14.30;99.90;;;;;;4978449;28;20206;-82
2023/08/06 04:36:04;;;;;;;1.40;1.30;;;14.50;99.90;;;;;;4978657;28;20533;-79
2023/08/06 04:38:31;;;;;;;1.53;1.43;;;14.30;99.90;;;;;;4980827;28;20207;-81
2023/08/06 04:40:58;;;;;;;1.40;1.30;;;14.50;99.90;;;;;;4980471;28;20503;-79
2023/08/06 04:43:25;;;;;;;1.80;1.70;;;14.40;99.90;;;;;;4990733;28;20839;-81
2023/08/06 04:45:54;;;;;;;1.92;1.80;;;14.30;99.90;;;;;;4984365;28;20267;-82
2023/08/06 04:48:22;;;;;;;2.50;1.30;;;14.40;99.90;;;;;;4980255;28;20199;-80
2023/08/06 04:50:50;;;;;;;1.07;1.07;;;14.30;99.90;;;;;;4981429;28;20456;-85
2023/08/06 04:53:17;;;;;;;1.55;1.45;;;14.30;99.90;;;;;;4984237;28;20444;-82
2023/08/06 04:55:44;;;;;;;1.80;1.70;;;14.30;99.90;;;;;;4980462;28;20210;-81
2023/08/06 04:58:13;;;;;;;1.50;1.40;;;14.30;99.90;;;;;;4980639;28;20276;-84
2023/08/06 05:00:40;;;;;;;1.63;1.53;;;14.30;99.90;;;;;;4983190;28;20238;-82
2023/08/06 05:03:07;;;;;;;1.87;1.60;;;14.30;99.90;;;;;;4979762;28;20445;-81
2023/08/06 05:05:34;;;;;;;1.50;1.40;;;14.30;99.90;;;;;;4979519;28;20444;-84
2023/08/06 05:08:02;;;;;;;3.65;2.03;;;14.30;99.90;;;;;;4978428;28;20600;-81
2023/08/06 05:10:29;;;;;;;2.90;2.03;;;14.30;99.90;;;;;;4978996;28;20462;-81
2023/08/06 05:12:56;;;;;;;1.70;1.60;;;14.20;99.90;;;;;;4979923;28;20440;-81
2023/08/06 05:15:25;;;;;;;1.90;1.80;;;14.20;99.90;;;;;;4976528;28;20238;-83
2023/08/06 05:17:52;;;;;;;1.90;1.80;;;14.30;99.90;;;;;;4978835;28;20281;-77
2023/08/06 05:20:23;;;;;;;1.30;1.20;;;14.20;99.90;;;;;;4993999;28;20436;-80
2023/08/06 05:22:51;;;;;;;1.43;1.33;;;14.30;99.90;;;;;;4977930;28;20522;-83
2023/08/06 05:25:20;;;;;;;1.70;1.60;;;14.20;99.90;;;;;;4978347;28;20448;-80
2023/08/06 05:27:47;;;;;;;1.77;1.67;;;14.30;99.90;;;;;;4978919;28;20861;-83
2023/08/06 05:30:14;;;;;;;1.42;1.33;;;14.30;99.90;;;;;;4978963;28;20202;-81
2023/08/06 05:32:41;;;;;;;1.47;1.37;;;14.30;99.90;;;;;;4985595;28;20326;-84
2023/08/06 05:35:22;;;;;;;;;;;;;;;;;;;;;
2023/08/06 05:37:52;;;;;;;1.30;1.20;;;14.30;99.90;;;;;;4982425;28;20488;-88
2023/08/06 05:40:19;;;;;;;1.80;1.65;;;14.20;99.90;;;;;;4978728;28;20288;-83
2023/08/06 05:42:47;;;;;;;1.23;1.13;;;14.20;99.90;;;;;;4978067;28;20214;-77
2023/08/06 05:45:14;;;;;;;1.48;1.38;;;14.20;99.90;;;;;;4980059;28;20540;-81
2023/08/06 05:47:41;;;;;;;2.85;1.27;;;14.20;99.90;;;;;;4980904;28;20238;-85
2023/08/06 05:50:09;;;;;;;1.40;1.30;;;14.20;99.90;;;;;;4984580;28;20222;-82
2023/08/06 05:52:36;;;;;;;1.35;1.25;;;14.20;99.90;;;;;;4986471;28;20207;-83
2023/08/06 05:55:03;;;;;;;2.93;1.80;;;14.20;99.90;;;;;;4985092;28;20493;-85
2023/08/06 05:57:33;;;;;;;1.17;1.10;;;14.20;99.90;;;;;;4984946;28;20511;-82
2023/08/06 06:00:00;;;;;;;3.83;1.90;;;14.20;99.90;;;;;;4982863;28;20505;-80
2023/08/06 06:02:28;;;;;;;2.83;1.50;;;14.20;99.90;;;;;;4983607;28;20484;-80
2023/08/06 06:04:54;;;;;;;2.38;1.80;;;14.20;99.90;;;;;;4983660;28;20487;-84
2023/08/06 06:07:22;;;;;;;1.52;1.42;;;14.20;99.90;;;;;;4980989;28;20234;-78
2023/08/06 06:09:49;;;;;;;1.35;1.23;;;14.20;99.90;;;;;;4982078;28;20237;-79
2023/08/06 06:12:18;;;;;;;1.33;1.23;;;14.20;99.90;;;;;;4991334;28;20214;-79
2023/08/06 06:14:46;;;;;;;1.13;1.02;;;14.20;99.90;;;;;;4982705;28;20475;-80
2023/08/06 06:17:13;;;;;;;0.93;0.93;;;14.20;99.90;;;;;;4984402;28;20221;-86
2023/08/06 06:19:40;;;;;;;0.93;0.90;;;14.20;99.90;;;;;;4981838;28;20458;-82
2023/08/06 06:22:07;;;;;;;2.05;1.45;;;14.20;99.90;;;;;;4986928;28;20507;-81
2023/08/06 06:24:35;;;;;;;2.07;1.37;;;14.20;99.90;;;;;;4994504;28;20329;-87
2023/08/06 06:27:02;;;;;;;1.90;1.73;;;14.50;99.90;;;;;;4992663;28;20523;-81
2023/08/06 06:29:29;;;;;;;1.63;1.37;;;14.30;99.90;;;;;;4993885;28;20190;-81
2023/08/06 06:31:56;;;;;;;2.08;1.63;;;14.30;99.90;;;;;;4993273;28;20471;-83
2023/08/06 06:34:28;;;;;;;1.30;1.20;;;14.30;99.90;;;;;;4987814;28;20402;-81
2023/08/06 06:36:54;;;;;;;1.65;1.55;;;14.30;99.90;;;;;;4987191;28;20847;-82
2023/08/06 06:39:27;;;;;;;2.93;1.27;;;14.30;99.90;;;;;;4998109;28;20214;-83
2023/08/06 06:41:54;;;;;;;1.20;1.20;;;14.30;99.90;;;;;;4979679;28;20476;-82
2023/08/06 06:44:22;;;;;;;1.48;1.38;;;14.30;99.90;;;;;;4983742;28;20444;-86
2023/08/06 06:46:49;;;;;;;1.17;1.15;;;14.20;99.90;;;;;;4980701;28;20432;-82
2023/08/06 06:49:16;;;;;;;1.70;1.60;;;14.30;99.90;;;;;;4981388;28;20210;-85
2023/08/06 06:51:44;;;;;;;2.10;1.00;;;14.30;99.90;;;;;;4986435;28;20217;-83
2023/08/06 06:54:14;;;;;;;1.90;1.67;;;14.30;99.90;;;;;;4987372;28;20425;-81
2023/08/06 06:56:43;;;;;;;1.27;0.93;;;14.40;99.90;;;;;;4981516;28;20206;-85
2023/08/06 06:59:19;;;;;;;1.43;1.33;;;14.50;99.90;;;;;;4978960;28;20571;-86
2023/08/06 07:01:46;;;;;;;1.23;1.13;;;14.50;99.90;;;;;;4996287;28;20507;-86
2023/08/06 07:04:14;;;;;;;1.20;1.10;;;14.60;99.90;;;;;;4979907;28;20448;-81
2023/08/06 07:06:41;;;;;;;1.13;1.03;;;14.60;99.90;;;;;;4979084;28;20476;-79
2023/08/06 07:09:10;;;;;;;0.90;0.90;;;14.60;99.90;;;;;;4981284;28;20524;-85
2023/08/06 07:11:43;;;;;;;1.40;1.30;;;14.40;99.90;;;;;;4975488;28;20451;-81
2023/08/06 07:14:14;;;;;;;1.13;1.03;;;14.50;99.90;;;;;;4979052;28;20445;-84
2023/08/06 07:16:41;;;;;;;1.60;1.50;;;14.60;99.90;;;;;;4980723;28;20455;-83
2023/08/06 07:19:08;;;;;;;1.27;1.20;;;14.60;99.90;;;;;;4984473;28;20479;-81
2023/08/06 07:21:35;;;;;;;2.13;1.60;;;14.60;99.90;;;;;;4980807;28;20483;-82
2023/08/06 07:24:09;;;;;;;1.60;1.50;;;14.60;99.90;;;;;;4980246;28;20447;-82
2023/08/06 07:26:37;;;;;;;1.57;1.47;;;14.70;99.90;;;;;;4974692;28;20486;-81
2023/08/06 07:29:04;;;;;;;1.70;1.57;;;14.70;99.90;;;;;;4980467;28;20487;-82
2023/08/06 07:31:31;;;;;;;1.40;1.30;;;14.70;99.90;;;;;;4979933;28;20548;-80
2023/08/06 07:34:03;;;;;;;1.97;1.87;;;14.70;99.90;;;;;;4978790;28;20471;-82
2023/08/06 07:36:29;;;;;;;1.80;1.70;;;14.70;99.90;;;;;;4980871;28;20517;-79
2023/08/06 07:38:58;;;;;;;2.38;2.20;;;14.80;99.90;;;;;;4979272;28;20448;-83
2023/08/06 07:41:25;;;;;;;2.13;2.03;;;14.70;99.90;;;;;;4979913;28;20233;-84
2023/08/06 07:43:53;;;;;;;3.50;2.90;;;14.60;99.90;;;;;;4980095;28;20737;-83
2023/08/06 07:46:21;;;;;;;2.83;2.63;;;14.60;99.90;;;;;;4979894;28;20472;-84
2023/08/06 07:48:54;;;;;;;3.50;3.30;;;14.60;99.90;;;;;;4986418;28;20464;-82
2023/08/06 07:51:28;;;;;;;4.23;3.93;;;14.60;99.90;;;;;;4986399;28;20689;-80
2023/08/06 07:53:58;;;;;;;3.33;3.07;;;14.70;99.90;;;;;;4983693;28;20447;-82
2023/08/06 07:56:28;;;;;;;4.57;4.27;;;14.60;99.90;;;;;;4982226;28;20748;-82
2023/08/06 07:58:55;;;;;;;3.70;3.40;;;14.50;99.90;;;;;;4982170;28;20783;-81
2023/08/06 08:01:22;;;;;;;3.80;3.60;;;14.60;99.90;;;;;;4980617;28;20520;-84
2023/08/06 08:03:49;;;;;;;3.33;3.13;;;14.60;99.90;;;;;;4985607;28;20437;-81
2023/08/06 08:06:28;;;;;;;4.80;3.97;;;14.60;99.90;;;;;;4986829;28;20465;-81
2023/08/06 08:09:00;;;;;;;3.90;3.70;;;14.60;99.90;;;;;;4984039;28;20440;-83
2023/08/06 08:11:29;;;;;;;5.03;4.73;;;14.50;99.90;;;;;;4988087;28;20279;-81
2023/08/06 08:13:56;;;;;;;4.23;4.03;;;14.60;99.90;;;;;;4988384;28;20515;-80
2023/08/06 08:16:23;;;;;;;4.67;4.37;;;14.80;99.90;;;;;;4986244;28;20441;-78
2023/08/06 08:18:50;;;;;;;4.20;4.00;;;14.60;99.90;;;;;;4981860;28;20444;-80
2023/08/06 08:21:17;;;;;;;3.97;3.67;;;14.60;99.90;;;;;;4980642;28;20559;-81
2023/08/06 08:23:45;;;;;;;4.32;4.03;;;14.50;99.90;;;;;;4983319;28;20273;-80
2023/08/06 08:26:12;;;;;;;4.53;4.23;;;14.60;99.90;;;;;;4981093;28;20237;-80
2023/08/06 08:28:39;;;;;;;5.03;4.73;;;14.60;99.90;;;;;;4985858;28;20511;-82
2023/08/06 08:31:12;;;;;;;4.50;4.20;;;14.60;99.90;;;;;;4979876;28;20448;-82
2023/08/06 08:33:41;;;;;;;3.87;3.67;;;14.70;99.90;;;;;;4978219;28;20456;-80
2023/08/06 08:36:10;;;;;;;3.47;3.27;;;14.60;99.90;;;;;;4983536;28;20427;-82
2023/08/06 08:38:37;;;;;;;3.20;3.00;;;14.70;99.90;;;;;;4977934;28;20491;-79
2023/08/06 08:41:05;;;;;;;3.00;2.80;;;14.70;99.90;;;;;;4983190;28;20564;-84
2023/08/06 08:43:33;;;;;;;2.70;2.60;;;14.70;99.90;;;;;;4982631;28;20654;-81
2023/08/06 08:46:01;;;;;;;2.27;2.17;;;14.60;99.90;;;;;;4980994;28;20760;-84
2023/08/06 08:48:29;;;;;;;3.30;3.10;;;14.70;99.90;;;;;;4982958;28;20463;-81
2023/08/06 08:50:57;;;;;;;2.67;2.47;;;14.70;99.90;;;;;;4984831;28;20456;-81
2023/08/06 08:53:26;;;;;;;2.80;2.60;;;14.80;99.90;;;;;;4983653;28;20509;-79
2023/08/06 08:55:55;;;;;;;2.30;2.20;;;14.80;99.90;;;;;;4983596;28;20463;-84
2023/08/06 08:58:24;;;;;;;2.30;2.20;;;14.80;99.90;;;;;;4984837;28;20217;-81
2023/08/06 09:00:52;;;;;;;2.10;2.00;;;14.80;99.90;;;;;;4982999;28;20440;-79
2023/08/06 09:03:22;;;;;;;2.33;2.13;;;14.90;99.90;;;;;;4989128;28;20506;-82
2023/08/06 09:05:52;;;;;;;2.20;2.10;;;14.70;99.90;;;;;;4987233;28;20452;-79
2023/08/06 09:08:27;;;;;;;1.50;1.40;;;14.80;99.90;;;;;;4982442;28;20441;-81
2023/08/06 09:10:56;;;;;;;2.13;2.03;;;14.80;99.90;;;;;;4981287;28;20449;-82
2023/08/06 09:13:23;;;;;;;2.73;2.17;;;14.80;99.90;;;;;;4977754;28;21027;-79
2023/08/06 09:15:56;;;;;;;2.17;2.07;;;14.80;99.90;;;;;;4979833;28;20813;-84
2023/08/06 09:18:28;;;;;;;2.40;2.27;;;14.90;99.90;;;;;;4984442;28;20437;-79
2023/08/06 09:20:56;;;;;;;2.67;2.47;;;14.90;99.90;;;;;;4977857;28;20451;-85
2023/08/06 09:23:33;;;;;;;2.30;2.03;;;14.90;99.90;;;;;;4978673;28;20547;-80
2023/08/06 09:26:01;;;;;;;2.20;2.10;;;14.90;99.90;;;;;;4977214;28;20436;-79
2023/08/06 09:28:44;;;;;;;3.13;2.70;;;14.90;99.90;;;;;;4985532;28;20443;-79
2023/08/06 09:31:11;;;;;;;4.03;2.40;;;14.90;99.90;;;;;;4988541;28;20850;-79
2023/08/06 09:33:38;;;;;;;2.50;1.83;;;14.90;99.90;;;;;;4985245;28;20456;-84
2023/08/06 09:36:12;;;;;;;1.83;1.73;;;14.90;99.90;;;;;;4979530;28;20543;-86
2023/08/06 09:38:40;;;;;;;2.23;2.03;;;14.80;99.90;;;;;;4983239;28;20447;-80
2023/08/06 09:41:08;;;;;;;2.60;2.50;;;14.90;99.90;;;;;;4986969;28;20503;-81
2023/08/06 09:43:40;;;;;;;2.30;2.10;;;14.80;99.90;;;;;;4985420;28;20539;-81
2023/08/06 09:46:16;;;;;;;2.20;2.03;;;14.90;99.90;;;;;;4985659;28;20460;-81
2023/08/06 09:48:46;;;;;;;2.40;2.30;;;14.90;99.90;;;;;;4982550;28;20432;-82
2023/08/06 09:51:15;;;;;;;3.23;3.03;;;14.80;99.90;;;;;;4978338;28;20431;-81
2023/08/06 09:53:44;;;;;;;3.40;3.10;;;14.80;99.90;;;;;;4987971;28;20445;-81
2023/08/06 09:56:18;;;;;;;3.50;3.30;;;14.80;99.90;;;;;;4991154;28;20439;-81
2023/08/06 09:58:48;;;;;;;2.87;2.67;;;14.80;99.90;;;;;;4988592;28;20429;-79
2023/08/06 10:01:17;;;;;;;2.88;2.67;;;14.80;99.90;;;;;;4986165;28;20578;-79
2023/08/06 10:03:54;;;;;;;3.55;3.25;;;14.80;99.90;;;;;;4982562;28;20206;-85
2023/08/06 10:06:23;;;;;;;2.73;2.53;;;14.80;99.90;;;;;;4982995;28;20394;-82
2023/08/06 10:08:50;;;;;;;2.43;2.20;;;14.80;99.90;;;;;;4980298;28;20476;-83
2023/08/06 10:11:18;;;;;;;2.30;2.20;;;14.80;99.90;;;;;;4981113;28;20448;-78
2023/08/06 10:13:52;;;;;;;2.80;2.60;;;14.80;99.90;;;;;;4982053;28;20436;-88
2023/08/06 10:16:28;;;;;;;2.60;2.50;;;14.80;99.90;;;;;;4979661;28;20531;-81
2023/08/06 10:18:59;;;;;;;2.10;2.00;;;14.90;99.90;;;;;;4976785;28;20444;-82
2023/08/06 10:21:29;;;;;;;3.60;3.40;;;14.80;99.90;;;;;;4976725;28;20523;-82
2023/08/06 10:23:56;;;;;;;3.73;3.30;;;14.90;99.90;;;;;;4976437;28;20815;-85
2023/08/06 10:26:33;;;;;;;3.10;2.57;;;14.70;99.90;;;;;;4978062;28;20448;-83
2023/08/06 10:28:59;;;;;;;3.70;3.42;;;14.90;99.90;;;;;;4976083;28;20451;-81
2023/08/06 10:31:55;;;;;;;3.60;3.10;;;14.90;99.90;;;;;;4974848;28;20218;-79
2023/08/06 10:34:22;;;;;;;3.27;3.07;;;14.90;99.90;;;;;;4976436;28;20442;-79
2023/08/06 10:36:50;;;;;;;3.30;3.10;;;15.00;99.90;;;;;;4981602;28;20809;-88
2023/08/06 10:39:16;;;;;;;10.00;4.40;;;15.10;99.90;;;;;;4977304;28;20468;-84
2023/08/06 10:41:57;;;;;;;2.67;2.47;;;15.00;99.90;;;;;;4975281;28;20563;-84
2023/08/06 10:44:26;;;;;;;4.23;3.93;;;15.10;99.90;;;;;;4980718;28;20452;-81
2023/08/06 10:47:28;;;;;;;2.83;2.53;;;15.10;99.90;;;;;;4979600;28;20441;-85
2023/08/06 10:49:55;;;;;;;3.47;3.27;;;15.10;99.90;;;;;;4982534;28;20456;-79
2023/08/06 10:52:22;;;;;;;2.73;2.53;;;15.00;99.90;;;;;;4982386;28;20523;-78
2023/08/06 10:54:55;;;;;;;2.53;2.33;;;15.00;99.90;;;;;;4984575;28;20443;-81
2023/08/06 10:57:23;;;;;;;2.90;2.70;;;15.10;99.90;;;;;;4987645;28;20460;-81
2023/08/06 10:59:55;;;;;;;2.70;2.40;;;15.20;99.90;;;;;;4981270;28;20495;-83
2023/08/06 11:02:41;;;;;;;2.90;2.70;;;15.30;99.90;;;;;;4982494;28;20551;-78
2023/08/06 11:05:12;;;;;;;3.43;2.73;;;15.10;99.90;;;;;;4983684;28;20425;-85
2023/08/06 11:07:39;;;;;;;2.40;2.30;;;15.20;99.90;;;;;;4994142;28;20452;-86
2023/08/06 11:10:14;;;;;;;2.30;2.20;;;15.40;99.90;;;;;;4989915;28;20410;-83
2023/08/06 11:12:41;;;;;;;2.63;2.20;;;15.30;99.90;;;;;;4992102;28;20629;-85
2023/08/06 11:15:08;;;;;;;2.80;2.60;;;15.30;99.90;;;;;;4984315;28;20456;-84
2023/08/06 11:17:36;;;;;;;2.63;2.43;;;15.30;99.90;;;;;;4982368;28;20472;-80
2023/08/06 11:20:04;;;;;;;2.43;2.17;;;15.30;99.90;;;;;;4982212;28;20696;-83
2023/08/06 11:22:31;;;;;;;2.20;2.00;;;15.30;99.90;;;;;;4981608;28;20515;-82
2023/08/06 11:25:02;;;;;;;2.27;2.07;;;15.50;99.90;;;;;;4985331;28;20444;-81
2023/08/06 11:27:34;;;;;;;1.87;1.77;;;15.40;99.90;;;;;;4983152;28;20500;-81
2023/08/06 11:30:02;;;;;;;2.20;2.10;;;15.40;99.90;;;;;;4984213;28;20767;-82
2023/08/06 11:32:29;;;;;;;2.30;2.10;;;15.40;99.90;;;;;;4987800;28;20471;-83
2023/08/06 11:34:56;;;;;;;3.23;1.87;;;15.50;99.90;;;;;;4978044;28;20456;-83
2023/08/06 11:37:24;;;;;;;2.07;1.97;;;15.40;99.90;;;;;;4988905;28;20527;-80
2023/08/06 11:39:53;;;;;;;2.50;2.30;;;15.40;99.90;;;;;;4975973;28;20450;-80
2023/08/06 11:42:20;;;;;;;1.90;1.80;;;15.50;99.90;;;;;;4984043;28;20496;-84
2023/08/06 11:44:47;;;;;;;3.47;2.80;;;15.50;99.90;;;;;;4988528;28;20484;-82
2023/08/06 11:47:18;;;;;;;2.27;2.17;;;15.50;99.90;;;;;;4985030;28;20806;-79
2023/08/06 11:49:54;;;;;;;1.90;1.80;;;15.60;99.90;;;;;;4984044;28;20586;-83
2023/08/06 11:52:26;;;;;;;2.00;1.90;;;15.60;99.90;;;;;;4984549;28;20503;-79
2023/08/06 11:55:03;;;;;;;1.83;1.73;;;15.60;99.90;;;;;;4982397;28;20461;-80
2023/08/06 11:57:35;;;;;;;1.90;1.80;;;15.50;99.90;;;;;;4984397;28;20468;-83
2023/08/06 12:00:10;;;;;;;2.40;2.20;;;15.50;99.90;;;;;;4985347;28;20435;-84
2023/08/06 12:02:42;;;;;;;2.27;2.13;;;15.40;99.90;;;;;;4986832;28;20459;-83
2023/08/06 12:05:17;;;;;;;2.70;2.50;;;15.40;99.90;;;;;;4990837;28;20455;-83
2023/08/06 12:07:48;;;;;;;2.57;2.47;;;15.30;99.90;;;;;;4986983;28;20456;-84
2023/08/06 12:10:19;;;;;;;3.80;2.97;;;15.50;99.90;;;;;;4990709;28;20495;-80
2023/08/06 12:12:47;;;;;;;2.00;1.90;;;15.50;99.90;;;;;;4985581;28;20448;-83
2023/08/06 12:15:14;;;;;;;5.50;3.70;;;15.50;99.90;;;;;;4995754;28;20508;-81
2023/08/06 12:17:44;;;;;;;4.30;2.20;;;15.50;99.90;;;;;;4999103;28;20448;-81
2023/08/06 12:20:12;;;;;;;2.17;2.03;;;15.60;99.90;;;;;;4993191;28;20441;-81
2023/08/06 12:22:42;;;;;;;2.03;1.93;;;15.50;99.90;;;;;;4988534;28;20559;-82
2023/08/06 12:25:12;;;;;;;2.63;2.43;;;15.50;99.90;;;;;;4981395;28;20756;-87
2023/08/06 12:27:41;;;;;;;2.53;2.33;;;15.50;99.90;;;;;;4995720;28;20463;-80
2023/08/06 12:30:10;;;;;;;2.50;2.33;;;15.60;99.90;;;;;;4990814;28;20445;-81
2023/08/06 12:32:40;;;;;;;2.70;2.43;;;15.50;99.90;;;;;;4991266;28;20486;-84
2023/08/06 12:35:09;;;;;;;2.47;2.27;;;15.50;99.90;;;;;;4983774;28;20470;-85
2023/08/06 12:37:39;;;;;;;3.23;3.03;;;15.50;99.90;;;;;;4985631;28;20508;-83
2023/08/06 12:40:06;;;;;;;2.97;2.77;;;15.60;99.90;;;;;;4990980;28;20468;-82
2023/08/06 12:42:53;;;;;;;3.60;3.40;;;15.50;99.90;;;;;;4985854;28;20484;-86
2023/08/06 12:45:22;;;;;;;2.97;2.77;;;15.50;99.90;;;;;;4986099;28;20449;-83
2023/08/06 12:47:51;;;;;;;2.97;2.77;;;15.50;99.90;;;;;;4989029;28;20772;-82
2023/08/06 12:50:18;;;;;;;3.00;2.80;;;15.50;99.90;;;;;;4978007;28;20522;-82
2023/08/06 12:52:54;;;;;;;3.20;3.00;;;15.60;99.90;;;;;;4977611;28;20456;-84
2023/08/06 12:55:22;;;;;;;3.93;3.17;;;15.50;99.90;;;;;;4981961;28;20446;-86
2023/08/06 12:57:48;;;;;;;3.57;3.23;;;15.70;99.90;;;;;;4984521;28;20490;-80